Time;durP1;ratioP1;P1;durP2;ratioP2;P2;SDS_P1;SDS_P2;PMS_P1;PMS_P2;Temp;Humidity;BMP_temperature;BMP_pressure;BME280_temperature;BME280_humidity;BME280_pressure;Samples;Min_cycle;Max_cycle;Signal;HPM_P1;HPM_P2
2022/01/18 00:01:59;;;;;;;0.10;0.10;;;;;;;;;;4828361;29;20132;-86
2022/01/18 00:04:27;;;;;;;0.10;0.10;;;;;;;;;;4828240;29;20097;-86
2022/01/18 00:06:53;;;;;;;0.10;0.10;;;;;;;;;;4828071;29;20050;-86
2022/01/18 00:09:20;;;;;;;0.10;0.10;;;;;;;;;;4828158;29;20076;-86
2022/01/18 00:11:54;;;;;;;0.10;0.10;;;;;;;;;;4843358;29;20120;-86
2022/01/18 00:14:40;;;;;;;0.10;0.10;;;;;;;;;;4828184;29;20057;-86
2022/01/18 00:17:29;;;;;;;0.15;0.15;;;;;;;;;;4828269;29;20053;-86
2022/01/18 00:19:57;;;;;;;0.10;0.10;;;;;;;;;;4827980;29;20045;-87
2022/01/18 00:22:25;;;;;;;0.55;0.20;;;;;;;;;;4827930;29;20046;-86
2022/01/18 00:24:51;;;;;;;0.10;0.10;;;;;;;;;;4842982;29;20056;-86
2022/01/18 00:27:18;;;;;;;0.63;0.63;;;;;;;;;;4827981;29;20098;-87
2022/01/18 00:30:09;;;;;;;0.10;0.10;;;;;;;;;;4843170;29;20461;-87
2022/01/18 00:34:59;;;;;;;0.57;0.57;;;;;;;;;;4842928;29;20409;-87
2022/01/18 00:37:37;;;;;;;0.10;0.10;;;;;;;;;;4827821;29;20091;-87
2022/01/18 00:40:04;;;;;;;0.10;0.10;;;;;;;;;;4827732;29;20037;-87
2022/01/18 00:42:30;;;;;;;0.10;0.10;;;;;;;;;;4827627;29;20141;-87
2022/01/18 00:44:56;;;;;;;0.10;0.10;;;;;;;;;;4827884;29;20049;-87
2022/01/18 00:47:22;;;;;;;0.10;0.10;;;;;;;;;;4827723;29;20083;-87
2022/01/18 00:49:55;;;;;;;0.10;0.10;;;;;;;;;;4843018;29;20133;-87
2022/01/18 00:52:21;;;;;;;0.10;0.10;;;;;;;;;;4827480;29;20044;-87
2022/01/18 00:54:47;;;;;;;0.10;0.10;;;;;;;;;;4827736;29;20124;-87
2022/01/18 00:57:13;;;;;;;0.10;0.10;;;;;;;;;;4844571;29;20098;-86
2022/01/18 00:59:40;;;;;;;0.10;0.10;;;;;;;;;;4831682;29;20057;-86
2022/01/18 01:02:07;;;;;;;0.10;0.10;;;;;;;;;;4831376;29;20070;-86
2022/01/18 01:04:37;;;;;;;0.10;0.10;;;;;;;;;;4831145;29;20266;-87
2022/01/18 01:07:03;;;;;;;0.10;0.10;;;;;;;;;;4846469;29;20575;-87
2022/01/18 01:09:29;;;;;;;0.10;0.10;;;;;;;;;;4846713;29;20612;-87
2022/01/18 01:11:55;;;;;;;0.10;0.10;;;;;;;;;;4831252;29;20084;-87
2022/01/18 01:14:24;;;;;;;0.10;0.10;;;;;;;;;;4846420;29;20513;-86
2022/01/18 01:19:43;;;;;;;0.10;0.10;;;;;;;;;;4846321;29;20060;-87
2022/01/18 01:44:05;;;;;;;0.10;0.10;;;;;;;;;;4832897;29;20049;-86
2022/01/18 01:46:32;;;;;;;0.10;0.10;;;;;;;;;;4845742;29;20137;-86
2022/01/18 01:48:59;;;;;;;0.10;0.10;;;;;;;;;;4830709;29;20174;-86
2022/01/18 01:51:31;;;;;;;0.10;0.10;;;;;;;;;;4830308;29;20463;-86
2022/01/18 01:54:03;;;;;;;0.10;0.10;;;;;;;;;;4845688;29;20046;-86
2022/01/18 01:56:29;;;;;;;0.10;0.10;;;;;;;;;;4830335;29;20055;-86
2022/01/18 01:58:55;;;;;;;0.10;0.10;;;;;;;;;;4830444;29;20128;-85
2022/01/18 02:01:21;;;;;;;0.10;0.10;;;;;;;;;;4830204;29;20506;-87
2022/01/18 02:03:47;;;;;;;0.10;0.10;;;;;;;;;;4845507;29;20057;-87
2022/01/18 02:06:13;;;;;;;0.10;0.10;;;;;;;;;;4830300;29;20383;-87
2022/01/18 02:08:39;;;;;;;0.10;0.10;;;;;;;;;;4829186;29;20042;-85
2022/01/18 02:11:05;;;;;;;0.10;0.10;;;;;;;;;;4845673;29;20468;-87
2022/01/18 02:13:33;;;;;;;0.10;0.10;;;;;;;;;;4830162;29;20190;-86
2022/01/18 02:21:46;;;;;;;0.10;0.10;;;;;;;;;;4848276;29;20053;-86
2022/01/18 02:24:04;;;;;;;0.10;0.10;;;;;;;;;;4861722;29;20053;-85
2022/01/18 02:26:31;;;;;;;0.10;0.10;;;;;;;;;;4829925;29;20050;-86
2022/01/18 02:29:03;;;;;;;0.32;0.32;;;;;;;;;;4829812;29;20479;-85
2022/01/18 02:31:29;;;;;;;0.20;0.20;;;;;;;;;;4845066;29;20061;-86
2022/01/18 02:33:56;;;;;;;0.73;0.10;;;;;;;;;;4829745;29;20049;-86
2022/01/18 02:36:22;;;;;;;0.10;0.10;;;;;;;;;;4845119;29;20409;-85
2022/01/18 02:38:48;;;;;;;0.10;0.10;;;;;;;;;;4845131;29;20045;-86
2022/01/18 02:41:30;;;;;;;0.10;0.10;;;;;;;;;;4829849;29;20081;-86
2022/01/18 02:43:57;;;;;;;0.10;0.10;;;;;;;;;;4829881;29;20049;-86
2022/01/18 02:46:23;;;;;;;0.10;0.10;;;;;;;;;;4844810;29;20045;-86
2022/01/18 02:48:49;;;;;;;0.10;0.10;;;;;;;;;;4829739;29;20049;-86
2022/01/18 02:51:15;;;;;;;0.10;0.10;;;;;;;;;;4844884;29;20116;-86
2022/01/18 02:54:00;;;;;;;0.10;0.10;;;;;;;;;;4829916;29;20072;-87
2022/01/18 02:56:53;;;;;;;0.10;0.10;;;;;;;;;;4829422;29;20037;-87
2022/01/18 03:05:05;;;;;;;0.10;0.10;;;;;;;;;;4844435;29;20136;-86
2022/01/18 03:07:31;;;;;;;0.10;0.10;;;;;;;;;;4829427;29;20496;-86
2022/01/18 03:09:57;;;;;;;0.10;0.10;;;;;;;;;;4829295;29;20159;-86
2022/01/18 03:12:23;;;;;;;0.10;0.10;;;;;;;;;;4844620;29;20041;-86
2022/01/18 03:14:49;;;;;;;0.10;0.10;;;;;;;;;;4829335;29;20050;-86
2022/01/18 03:17:15;;;;;;;0.10;0.10;;;;;;;;;;4829293;29;20056;-87
2022/01/18 03:19:41;;;;;;;0.10;0.10;;;;;;;;;;4828975;29;20550;-86
2022/01/18 03:22:07;;;;;;;0.10;0.10;;;;;;;;;;4829244;29;20046;-86
2022/01/18 03:24:49;;;;;;;0.10;0.10;;;;;;;;;;4844142;29;20116;-86
2022/01/18 03:30:00;;;;;;;0.10;0.10;;;;;;;;;;4844042;29;20045;-85
2022/01/18 03:32:26;;;;;;;0.10;0.10;;;;;;;;;;4828843;29;20050;-87
2022/01/18 03:34:52;;;;;;;0.10;0.10;;;;;;;;;;4828517;29;20061;-88
2022/01/18 03:37:18;;;;;;;0.10;0.10;;;;;;;;;;4829008;29;20060;-86
2022/01/18 03:39:44;;;;;;;0.10;0.10;;;;;;;;;;4828749;29;20173;-86
2022/01/18 03:42:35;;;;;;;0.10;0.10;;;;;;;;;;4828559;29;20410;-86
2022/01/18 03:45:03;;;;;;;0.10;0.10;;;;;;;;;;4828793;29;20052;-86
2022/01/18 03:47:30;;;;;;;0.22;0.22;;;;;;;;;;4828453;29;20129;-86
2022/01/18 03:49:56;;;;;;;0.10;0.10;;;;;;;;;;4843606;29;20048;-85
2022/01/18 03:52:22;;;;;;;0.10;0.10;;;;;;;;;;4828577;29;20041;-87
2022/01/18 03:54:50;;;;;;;0.10;0.10;;;;;;;;;;4843853;29;20402;-86
2022/01/18 03:57:16;;;;;;;0.10;0.10;;;;;;;;;;4828514;29;20042;-86
2022/01/18 03:59:42;;;;;;;0.17;0.13;;;;;;;;;;4828381;29;20049;-84
2022/01/18 04:02:08;;;;;;;0.10;0.10;;;;;;;;;;4828371;29;20105;-87
2022/01/18 04:04:34;;;;;;;0.10;0.10;;;;;;;;;;4828441;29;20045;-87
2022/01/18 04:07:00;;;;;;;0.10;0.10;;;;;;;;;;4828241;29;20049;-86
2022/01/18 04:09:26;;;;;;;0.10;0.10;;;;;;;;;;4843462;29;20133;-87
2022/01/18 04:11:53;;;;;;;0.10;0.10;;;;;;;;;;4843240;29;20100;-85
2022/01/18 04:14:19;;;;;;;0.10;0.10;;;;;;;;;;4828641;29;20391;-86
2022/01/18 04:17:01;;;;;;;0.10;0.10;;;;;;;;;;4843206;29;20522;-86
2022/01/18 04:27:33;;;;;;;0.10;0.10;;;;;;;;;;4843012;29;20470;-88
2022/01/18 04:29:59;;;;;;;0.10;0.10;;;;;;;;;;4828048;29;20049;-87
2022/01/18 04:32:25;;;;;;;0.10;0.10;;;;;;;;;;4827713;29;20045;-87
2022/01/18 04:34:51;;;;;;;0.10;0.10;;;;;;;;;;4843056;29;20092;-88
2022/01/18 04:37:17;;;;;;;0.10;0.10;;;;;;;;;;4827807;29;20132;-88
2022/01/18 04:39:45;;;;;;;0.10;0.10;;;;;;;;;;4827965;29;20049;-87
2022/01/18 04:42:17;;;;;;;0.10;0.10;;;;;;;;;;4827478;29;20057;-87
2022/01/18 04:50:12;;;;;;;0.10;0.10;;;;;;;;;;4842776;29;20132;-87
2022/01/18 04:52:38;;;;;;;0.10;0.10;;;;;;;;;;4842681;29;20081;-87
2022/01/18 04:55:05;;;;;;;0.10;0.10;;;;;;;;;;4827429;29;20042;-86
2022/01/18 05:00:15;;;;;;;0.10;0.10;;;;;;;;;;4829820;29;20049;-87
2022/01/18 05:02:41;;;;;;;0.10;0.10;;;;;;;;;;4842858;29;20125;-87
2022/01/18 05:05:10;;;;;;;0.10;0.10;;;;;;;;;;4842588;29;20080;-86
2022/01/18 05:07:36;;;;;;;0.10;0.10;;;;;;;;;;4827734;29;20049;-86
2022/01/18 05:10:02;;;;;;;0.10;0.10;;;;;;;;;;4842697;29;20048;-86
2022/01/18 05:12:45;;;;;;;0.10;0.10;;;;;;;;;;4827452;29;20041;-86
2022/01/18 05:15:35;;;;;;;0.10;0.10;;;;;;;;;;4827721;29;20486;-86
2022/01/18 05:20:55;;;;;;;0.10;0.10;;;;;;;;;;4842579;29;20045;-86
2022/01/18 05:23:21;;;;;;;0.10;0.10;;;;;;;;;;4827681;29;20335;-86
2022/01/18 05:25:47;;;;;;;0.10;0.10;;;;;;;;;;4842587;29;20060;-86
2022/01/18 05:28:13;;;;;;;0.10;0.10;;;;;;;;;;4842537;29;20132;-87
2022/01/18 05:30:39;;;;;;;0.10;0.10;;;;;;;;;;4827503;29;20042;-87
2022/01/18 05:33:05;;;;;;;0.10;0.10;;;;;;;;;;4827674;29;20352;-86
2022/01/18 05:35:31;;;;;;;0.10;0.10;;;;;;;;;;4827340;29;20072;-86
2022/01/18 05:37:57;;;;;;;0.10;0.10;;;;;;;;;;4827606;29;20071;-86
2022/01/18 05:40:23;;;;;;;0.10;0.10;;;;;;;;;;4827568;29;20122;-87
2022/01/18 05:42:49;;;;;;;0.10;0.10;;;;;;;;;;4827458;29;20430;-86
2022/01/18 05:45:15;;;;;;;0.10;0.10;;;;;;;;;;4830535;29;20476;-86
2022/01/18 05:47:41;;;;;;;0.10;0.10;;;;;;;;;;4830914;29;20128;-86
2022/01/18 05:50:07;;;;;;;0.10;0.10;;;;;;;;;;4830605;29;20084;-87
2022/01/18 05:52:33;;;;;;;0.10;0.10;;;;;;;;;;4830742;29;20051;-87
2022/01/18 05:54:59;;;;;;;0.10;0.10;;;;;;;;;;4830599;29;20100;-85
2022/01/18 05:57:25;;;;;;;0.10;0.10;;;;;;;;;;4845810;29;20113;-86
2022/01/18 05:59:53;;;;;;;0.10;0.10;;;;;;;;;;4830349;29;20041;-87
2022/01/18 06:02:35;;;;;;;0.10;0.10;;;;;;;;;;4830172;29;20108;-86
2022/01/18 06:07:45;;;;;;;0.10;0.10;;;;;;;;;;4832536;29;20054;-87
2022/01/18 06:10:11;;;;;;;0.10;0.10;;;;;;;;;;4830104;29;20100;-87
2022/01/18 06:12:39;;;;;;;0.10;0.10;;;;;;;;;;4830032;29;20046;-87
2022/01/18 06:15:05;;;;;;;0.10;0.10;;;;;;;;;;4830069;29;20068;-87
2022/01/18 06:17:31;;;;;;;0.10;0.10;;;;;;;;;;4830192;29;20042;-86
2022/01/18 06:19:57;;;;;;;0.10;0.10;;;;;;;;;;4845465;29;20045;-87
2022/01/18 06:22:23;;;;;;;0.10;0.10;;;;;;;;;;4830204;29;20048;-87
2022/01/18 06:24:49;;;;;;;0.10;0.10;;;;;;;;;;4829952;29;20053;-87
2022/01/18 06:27:15;;;;;;;0.10;0.10;;;;;;;;;;4829819;29;20046;-87
2022/01/18 06:29:41;;;;;;;0.10;0.10;;;;;;;;;;4829857;29;20141;-87
2022/01/18 06:32:07;;;;;;;0.10;0.10;;;;;;;;;;4829843;29;20041;-87
2022/01/18 06:34:33;;;;;;;0.10;0.10;;;;;;;;;;4844792;29;20144;-87
2022/01/18 06:36:59;;;;;;;0.10;0.10;;;;;;;;;;4829960;29;20053;-87
2022/01/18 06:39:25;;;;;;;0.10;0.10;;;;;;;;;;4829750;29;20048;-87
2022/01/18 06:41:51;;;;;;;0.10;0.10;;;;;;;;;;4829576;29;20077;-87
2022/01/18 06:44:17;;;;;;;0.10;0.10;;;;;;;;;;4830199;29;20088;-87
2022/01/18 06:46:43;;;;;;;0.10;0.10;;;;;;;;;;4844921;29;20414;-86
2022/01/18 06:49:09;;;;;;;0.10;0.10;;;;;;;;;;4829616;29;20033;-86
2022/01/18 06:51:35;;;;;;;0.10;0.10;;;;;;;;;;4829680;29;20045;-86
2022/01/18 06:54:01;;;;;;;0.10;0.10;;;;;;;;;;4844303;29;20041;-86
2022/01/18 06:56:27;;;;;;;0.10;0.10;;;;;;;;;;4844609;29;20067;-86
2022/01/18 06:58:53;;;;;;;0.10;0.10;;;;;;;;;;4844663;29;20045;-86
2022/01/18 07:01:19;;;;;;;0.10;0.10;;;;;;;;;;4829511;29;20049;-86
2022/01/18 07:03:47;;;;;;;0.10;0.10;;;;;;;;;;4829364;29;20088;-87
2022/01/18 07:06:13;;;;;;;0.10;0.10;;;;;;;;;;4829266;29;20049;-86
2022/01/18 07:08:39;;;;;;;0.10;0.10;;;;;;;;;;4844571;29;20391;-86
2022/01/18 07:11:05;;;;;;;0.10;0.10;;;;;;;;;;4844354;29;20046;-86
2022/01/18 07:13:31;;;;;;;0.10;0.10;;;;;;;;;;4829264;29;20089;-87
2022/01/18 07:15:57;;;;;;;0.10;0.10;;;;;;;;;;4829549;29;20049;-86
2022/01/18 07:18:23;;;;;;;0.10;0.10;;;;;;;;;;4829113;29;20086;-86
2022/01/18 07:20:49;;;;;;;0.10;0.10;;;;;;;;;;4829489;29;20053;-87
2022/01/18 07:23:15;;;;;;;0.10;0.10;;;;;;;;;;4829017;29;20052;-86
2022/01/18 07:25:43;;;;;;;0.10;0.10;;;;;;;;;;4844011;29;20050;-87
2022/01/18 07:28:13;;;;;;;0.10;0.10;;;;;;;;;;4828797;29;20046;-86
2022/01/18 07:30:39;;;;;;;0.10;0.10;;;;;;;;;;4829375;29;20341;-89
2022/01/18 07:33:05;;;;;;;0.10;0.10;;;;;;;;;;4829031;29;20392;-86
2022/01/18 07:35:33;;;;;;;0.10;0.10;;;;;;;;;;4843797;29;20057;-84
2022/01/18 07:38:00;;;;;;;0.10;0.10;;;;;;;;;;4843973;29;20069;-86
2022/01/18 07:40:26;;;;;;;0.10;0.10;;;;;;;;;;4843731;29;20092;-85
2022/01/18 07:42:53;;;;;;;0.10;0.10;;;;;;;;;;4843747;29;20057;-85
2022/01/18 07:45:19;;;;;;;0.10;0.10;;;;;;;;;;4828803;29;20132;-85
2022/01/18 07:47:44;;;;;;;0.10;0.10;;;;;;;;;;4843959;29;20125;-85
2022/01/18 07:50:10;;;;;;;0.10;0.10;;;;;;;;;;4843968;29;20041;-84
2022/01/18 07:52:36;;;;;;;0.10;0.10;;;;;;;;;;4843758;29;20049;-84
2022/01/18 07:55:04;;;;;;;0.10;0.10;;;;;;;;;;4829344;29;20034;-85
2022/01/18 07:57:30;;;;;;;0.10;0.10;;;;;;;;;;4828695;29;20500;-84
2022/01/18 07:59:56;;;;;;;0.10;0.10;;;;;;;;;;4828742;29;20087;-85
2022/01/18 08:02:22;;;;;;;0.10;0.10;;;;;;;;;;4843462;29;20135;-83
2022/01/18 08:04:48;;;;;;;0.10;0.10;;;;;;;;;;4828409;29;20053;-85
2022/01/18 08:07:14;;;;;;;0.05;0.05;;;;;;;;;;4827669;29;20068;-86
2022/01/18 08:09:40;;;;;;;0.10;0.10;;;;;;;;;;4828291;29;20067;-84
2022/01/18 08:12:06;;;;;;;0.10;0.10;;;;;;;;;;4828980;29;20065;-85
2022/01/18 08:14:33;;;;;;;0.10;0.10;;;;;;;;;;4828751;29;20042;-84
2022/01/18 08:17:04;;;;;;;0.10;0.10;;;;;;;;;;4843295;29;20235;-85
2022/01/18 08:19:31;;;;;;;0.10;0.10;;;;;;;;;;4843285;29;20109;-85
2022/01/18 08:21:57;;;;;;;0.10;0.10;;;;;;;;;;4828309;29;20053;-86
2022/01/18 08:24:23;;;;;;;0.10;0.10;;;;;;;;;;4843285;29;20121;-85
2022/01/18 08:26:49;;;;;;;0.10;0.10;;;;;;;;;;4843296;29;20046;-85
2022/01/18 08:29:16;;;;;;;0.10;0.10;;;;;;;;;;4843249;29;20152;-85
2022/01/18 08:31:42;;;;;;;0.10;0.10;;;;;;;;;;4828442;29;20041;-84
2022/01/18 08:34:08;;;;;;;0.10;0.10;;;;;;;;;;4843129;29;20058;-83
2022/01/18 08:36:34;;;;;;;0.10;0.10;;;;;;;;;;4828306;29;20053;-85
2022/01/18 08:39:00;;;;;;;0.10;0.10;;;;;;;;;;4827897;29;20057;-87
2022/01/18 08:41:26;;;;;;;0.10;0.10;;;;;;;;;;4828129;29;20244;-87
2022/01/18 08:43:53;;;;;;;0.10;0.10;;;;;;;;;;4843220;29;20110;-87
2022/01/18 08:46:19;;;;;;;0.10;0.10;;;;;;;;;;4828137;29;20053;-87
2022/01/18 08:48:45;;;;;;;0.10;0.10;;;;;;;;;;4843091;29;20117;-87
2022/01/18 08:51:11;;;;;;;0.10;0.10;;;;;;;;;;4828112;29;20066;-87
2022/01/18 08:53:37;;;;;;;0.10;0.10;;;;;;;;;;4827855;29;20060;-87
2022/01/18 08:56:04;;;;;;;0.10;0.10;;;;;;;;;;4838944;29;20166;-87
2022/01/18 08:58:31;;;;;;;0.10;0.10;;;;;;;;;;4809320;29;20050;-87
2022/01/18 09:00:57;;;;;;;0.10;0.10;;;;;;;;;;4820701;29;20060;-87
2022/01/18 09:03:23;;;;;;;0.10;0.10;;;;;;;;;;4828014;29;20041;-87
2022/01/18 09:05:50;;;;;;;0.10;0.10;;;;;;;;;;4811022;29;20050;-87
2022/01/18 09:08:18;;;;;;;0.10;0.10;;;;;;;;;;4824790;29;20128;-86
2022/01/18 09:10:44;;;;;;;0.10;0.10;;;;;;;;;;4824743;29;20050;-90
2022/01/18 09:13:11;;;;;;;0.10;0.10;;;;;;;;;;4824521;29;20084;-87
2022/01/18 09:15:37;;;;;;;0.10;0.10;;;;;;;;;;4825075;29;20057;-87
2022/01/18 09:18:03;;;;;;;0.10;0.10;;;;;;;;;;4811214;29;20062;-87
2022/01/18 09:20:30;;;;;;;0.10;0.10;;;;;;;;;;4813132;29;20126;-87
2022/01/18 09:22:56;;;;;;;0.10;0.10;;;;;;;;;;4827829;29;20088;-87
2022/01/18 09:25:23;;;;;;;0.10;0.10;;;;;;;;;;4827946;29;20064;-87
2022/01/18 09:27:49;;;;;;;0.10;0.10;;;;;;;;;;4827865;29;20107;-87
2022/01/18 09:30:15;;;;;;;0.10;0.10;;;;;;;;;;4813009;29;20513;-87
2022/01/18 09:32:42;;;;;;;0.10;0.10;;;;;;;;;;4827866;29;20042;-87
2022/01/18 09:35:08;;;;;;;0.10;0.10;;;;;;;;;;4812693;29;20058;-87
2022/01/18 09:37:34;;;;;;;0.10;0.10;;;;;;;;;;4827818;29;20042;-87
2022/01/18 09:40:00;;;;;;;0.10;0.10;;;;;;;;;;4827935;29;20038;-87
2022/01/18 09:42:34;;;;;;;0.10;0.10;;;;;;;;;;4812548;29;20136;-87
2022/01/18 09:45:00;;;;;;;0.35;0.20;;;;;;;;;;4827631;29;20158;-87
2022/01/18 09:47:28;;;;;;;0.10;0.10;;;;;;;;;;4812704;29;20053;-87
2022/01/18 09:50:00;;;;;;;0.47;0.47;;;;;;;;;;4827556;29;20089;-87
2022/01/18 09:52:26;;;;;;;0.10;0.10;;;;;;;;;;4812331;29;20042;-87
2022/01/18 09:54:52;;;;;;;0.10;0.10;;;;;;;;;;4812479;29;20050;-87
2022/01/18 09:57:18;;;;;;;0.10;0.10;;;;;;;;;;4827579;29;20069;-87
2022/01/18 09:59:44;;;;;;;0.10;0.10;;;;;;;;;;4812758;29;20410;-87
2022/01/18 10:02:10;;;;;;;0.10;0.10;;;;;;;;;;4812347;29;20136;-87
2022/01/18 10:04:40;;;;;;;0.10;0.10;;;;;;;;;;4827616;29;20383;-87
2022/01/18 10:07:06;;;;;;;0.10;0.10;;;;;;;;;;4827022;29;20046;-87
2022/01/18 10:09:34;;;;;;;0.10;0.10;;;;;;;;;;4812175;29;20041;-87
2022/01/18 10:12:11;;;;;;;0.10;0.10;;;;;;;;;;4826813;29;20056;-87
2022/01/18 10:14:38;;;;;;;0.10;0.10;;;;;;;;;;4812055;29;20042;-87
2022/01/18 10:17:04;;;;;;;0.10;0.10;;;;;;;;;;4827057;29;20049;-87
2022/01/18 10:19:30;;;;;;;0.10;0.10;;;;;;;;;;4826830;29;20057;-88
2022/01/18 10:22:18;;;;;;;0.10;0.10;;;;;;;;;;4826762;29;20069;-88
2022/01/18 10:24:44;;;;;;;0.10;0.10;;;;;;;;;;4826632;29;20053;-88
2022/01/18 10:27:11;;;;;;;0.10;0.10;;;;;;;;;;4827119;29;20046;-87
2022/01/18 10:29:38;;;;;;;0.10;0.10;;;;;;;;;;4825974;29;20074;-88
2022/01/18 10:32:27;;;;;;;0.10;0.10;;;;;;;;;;4826527;29;20038;-88
2022/01/18 10:37:20;;;;;;;0.10;0.10;;;;;;;;;;4811862;29;20058;-88
2022/01/18 10:39:49;;;;;;;0.10;0.10;;;;;;;;;;4826635;29;20049;-88
2022/01/18 10:42:32;;;;;;;0.10;0.10;;;;;;;;;;4826497;29;20125;-88
2022/01/18 10:44:59;;;;;;;0.10;0.10;;;;;;;;;;4826705;29;20128;-87
2022/01/18 10:47:25;;;;;;;0.10;0.10;;;;;;;;;;4826388;29;20046;-87
2022/01/18 10:49:51;;;;;;;0.52;0.28;;;;;;;;;;4826351;29;20130;-88
2022/01/18 10:52:21;;;;;;;0.10;0.10;;;;;;;;;;4811708;29;20073;-88
2022/01/18 10:54:50;;;;;;;0.10;0.10;;;;;;;;;;4826310;29;20487;-87
2022/01/18 10:57:23;;;;;;;0.10;0.10;;;;;;;;;;4826320;29;20046;-88
2022/01/18 10:59:49;;;;;;;0.10;0.10;;;;;;;;;;4826329;29;20057;-87
2022/01/18 11:02:17;;;;;;;0.10;0.10;;;;;;;;;;4826340;29;20079;-88
2022/01/18 11:04:47;;;;;;;0.35;0.20;;;;;;;;;;4826314;29;20471;-88
2022/01/18 11:07:13;;;;;;;0.10;0.10;;;;;;;;;;4826457;29;20463;-86
2022/01/18 11:09:40;;;;;;;0.10;0.10;;;;;;;;;;4826123;29;20074;-87
2022/01/18 11:12:06;;;;;;;0.38;0.22;;;;;;;;;;4826091;29;20421;-87
2022/01/18 11:14:32;;;;;;;0.10;0.10;;;;;;;;;;4826195;29;20098;-87
2022/01/18 11:16:59;;;;;;;0.10;0.10;;;;;;;;;;4826329;29;20416;-87
2022/01/18 11:21:55;;;;;;;0.10;0.10;;;;;;;;;;4810872;29;20058;-87
2022/01/18 11:24:21;;;;;;;0.10;0.10;;;;;;;;;;4810760;29;20053;-87
2022/01/18 11:26:48;;;;;;;0.10;0.10;;;;;;;;;;4825844;29;20042;-88
2022/01/18 11:29:16;;;;;;;0.10;0.10;;;;;;;;;;4826189;29;20397;-87
2022/01/18 11:31:42;;;;;;;0.10;0.10;;;;;;;;;;4810839;29;20502;-87
2022/01/18 11:34:08;;;;;;;0.10;0.10;;;;;;;;;;4810456;29;20150;-88
2022/01/18 11:36:38;;;;;;;0.10;0.10;;;;;;;;;;4810758;29;20075;-87
2022/01/18 11:39:05;;;;;;;0.10;0.10;;;;;;;;;;4825772;29;20046;-88
2022/01/18 11:41:34;;;;;;;0.10;0.10;;;;;;;;;;4825412;29;20046;-88
2022/01/18 11:44:10;;;;;;;0.10;0.10;;;;;;;;;;4825703;29;20046;-88
2022/01/18 11:46:40;;;;;;;0.10;0.10;;;;;;;;;;4825832;29;20190;-87
2022/01/18 11:49:07;;;;;;;0.10;0.10;;;;;;;;;;4825566;29;20042;-88
2022/01/18 11:51:48;;;;;;;0.10;0.10;;;;;;;;;;4810250;29;20045;-88
2022/01/18 11:54:36;;;;;;;0.10;0.10;;;;;;;;;;4825854;29;20042;-88
2022/01/18 11:57:21;;;;;;;0.10;0.10;;;;;;;;;;4825455;29;20049;-88
2022/01/18 11:59:47;;;;;;;0.10;0.10;;;;;;;;;;4810557;29;20451;-87
2022/01/18 12:02:14;;;;;;;0.10;0.10;;;;;;;;;;4825294;29;20125;-87
2022/01/18 12:07:09;;;;;;;0.10;0.10;;;;;;;;;;4825228;29;20054;-87
2022/01/18 12:09:39;;;;;;;0.10;0.10;;;;;;;;;;4810415;29;20561;-87
2022/01/18 12:12:09;;;;;;;0.10;0.10;;;;;;;;;;4825289;29;20479;-87
2022/01/18 12:14:35;;;;;;;0.10;0.10;;;;;;;;;;4825324;29;20042;-87
2022/01/18 12:17:13;;;;;;;0.10;0.10;;;;;;;;;;4810161;29;20046;-86
2022/01/18 12:19:46;;;;;;;0.10;0.10;;;;;;;;;;4825179;29;20523;-89
2022/01/18 12:22:12;;;;;;;0.10;0.10;;;;;;;;;;4825415;29;20069;-89
2022/01/18 12:24:43;;;;;;;0.10;0.10;;;;;;;;;;4809989;29;20513;-89
2022/01/18 12:27:42;;;;;;;0.20;0.20;;;;;;;;;;4825158;29;20053;-89
2022/01/18 12:30:25;;;;;;;0.10;0.10;;;;;;;;;;4803181;29;20046;-89
2022/01/18 12:33:11;;;;;;;0.10;0.10;;;;;;;;;;4825331;29;20053;-88
2022/01/18 12:35:37;;;;;;;0.10;0.10;;;;;;;;;;4824909;29;20094;-87
2022/01/18 12:38:10;;;;;;;0.10;0.10;;;;;;;;;;4824918;29;20067;-87
2022/01/18 12:40:37;;;;;;;0.10;0.10;;;;;;;;;;4824878;29;20121;-87
2022/01/18 12:45:33;;;;;;;0.10;0.10;;;;;;;;;;4809516;29;20490;-87
2022/01/18 12:48:00;;;;;;;0.10;0.10;;;;;;;;;;4825248;29;20041;-87
2022/01/18 12:50:28;;;;;;;0.15;0.15;;;;;;;;;;4824913;29;20518;-87
2022/01/18 12:52:57;;;;;;;0.10;0.10;;;;;;;;;;4827758;29;20520;-87
2022/01/18 12:55:46;;;;;;;0.10;0.10;;;;;;;;;;4830725;29;20038;-87
2022/01/18 12:58:12;;;;;;;0.10;0.10;;;;;;;;;;4830644;29;20045;-87
2022/01/18 13:00:45;;;;;;;0.10;0.10;;;;;;;;;;4830855;29;20054;-87
2022/01/18 13:03:15;;;;;;;0.10;0.10;;;;;;;;;;4815400;29;20139;-87
2022/01/18 13:05:42;;;;;;;0.10;0.10;;;;;;;;;;4830926;29;20050;-87
2022/01/18 13:08:08;;;;;;;0.10;0.10;;;;;;;;;;4815562;29;20125;-88
2022/01/18 13:10:35;;;;;;;0.10;0.10;;;;;;;;;;4830460;29;20117;-87
2022/01/18 13:13:02;;;;;;;0.10;0.10;;;;;;;;;;4815503;29;20045;-87
2022/01/18 13:23:59;;;;;;;0.10;0.10;;;;;;;;;;4818003;29;20054;-87
2022/01/18 13:26:38;;;;;;;0.10;0.10;;;;;;;;;;4830564;29;20042;-87
2022/01/18 13:29:11;;;;;;;0.10;0.10;;;;;;;;;;4830729;29;20402;-86
2022/01/18 13:31:37;;;;;;;;;;;;;;;;;;4830794;29;20045;-87
2022/01/18 13:34:03;;;;;;;0.10;0.10;;;;;;;;;;4830255;29;20310;-87
2022/01/18 13:36:32;;;;;;;0.10;0.10;;;;;;;;;;4830717;29;20046;-87
2022/01/18 13:38:58;;;;;;;0.10;0.10;;;;;;;;;;4830340;29;20060;-87
2022/01/18 13:41:24;;;;;;;0.10;0.10;;;;;;;;;;4815449;29;20045;-87
2022/01/18 13:43:50;;;;;;;0.10;0.10;;;;;;;;;;4830224;29;20497;-87
2022/01/18 13:46:23;;;;;;;0.10;0.10;;;;;;;;;;4815288;29;20052;-89
2022/01/18 13:48:49;;;;;;;0.10;0.10;;;;;;;;;;4830309;29;20141;-89
2022/01/18 13:51:18;;;;;;;0.88;0.75;;;;;;;;;;4815276;29;20132;-89
2022/01/18 13:53:44;;;;;;;0.10;0.10;;;;;;;;;;4830262;29;20044;-89
2022/01/18 13:56:22;;;;;;;0.10;0.10;;;;;;;;;;4815124;29;20050;-89
2022/01/18 13:58:50;;;;;;;0.17;0.13;;;;;;;;;;4830078;29;20262;-89
2022/01/18 14:01:29;;;;;;;0.10;0.10;;;;;;;;;;4830413;29;20054;-89
2022/01/18 14:03:56;;;;;;;0.10;0.10;;;;;;;;;;4827996;29;20125;-89
2022/01/18 14:06:32;;;;;;;0.10;0.10;;;;;;;;;;4827204;29;20045;-89
2022/01/18 14:08:58;;;;;;;0.30;0.30;;;;;;;;;;4827219;29;20133;-89
2022/01/18 14:11:25;;;;;;;0.10;0.10;;;;;;;;;;4827291;29;20440;-89
2022/01/18 14:13:51;;;;;;;0.10;0.10;;;;;;;;;;4827066;29;20134;-87
2022/01/18 14:16:19;;;;;;;0.10;0.10;;;;;;;;;;4827010;29;20205;-87
2022/01/18 14:18:51;;;;;;;0.10;0.10;;;;;;;;;;4826826;29;20089;-87
2022/01/18 14:21:24;;;;;;;0.10;0.10;;;;;;;;;;4827072;29;20052;-88
2022/01/18 14:23:50;;;;;;;0.10;0.10;;;;;;;;;;4826843;29;20221;-87
2022/01/18 14:26:19;;;;;;;0.10;0.10;;;;;;;;;;4811788;29;20673;-87
2022/01/18 14:28:45;;;;;;;0.10;0.10;;;;;;;;;;4826816;29;20491;-87
2022/01/18 14:31:11;;;;;;;0.10;0.10;;;;;;;;;;4827209;29;20049;-87
2022/01/18 14:33:38;;;;;;;0.10;0.10;;;;;;;;;;4826672;29;20498;-87
2022/01/18 14:36:13;;;;;;;0.10;0.10;;;;;;;;;;4811523;29;20427;-87
2022/01/18 14:38:39;;;;;;;0.13;0.13;;;;;;;;;;4811902;29;20050;-87
2022/01/18 14:41:06;;;;;;;0.10;0.10;;;;;;;;;;4826721;29;20053;-87
2022/01/18 14:43:38;;;;;;;0.10;0.10;;;;;;;;;;4811483;29;20079;-88
2022/01/18 14:46:21;;;;;;;0.10;0.10;;;;;;;;;;4811892;29;20476;-87
2022/01/18 14:48:47;;;;;;;0.10;0.10;;;;;;;;;;4826746;29;20401;-87
2022/01/18 14:51:13;;;;;;;0.20;0.20;;;;;;;;;;4811603;29;20054;-87
2022/01/18 14:53:39;;;;;;;0.10;0.10;;;;;;;;;;4826515;29;20057;-87
2022/01/18 14:56:06;;;;;;;0.10;0.10;;;;;;;;;;4826767;29;20113;-88
2022/01/18 14:58:32;;;;;;;0.10;0.10;;;;;;;;;;4826535;29;20046;-87
2022/01/18 15:00:59;;;;;;;0.10;0.10;;;;;;;;;;4826428;29;20133;-87
2022/01/18 15:03:25;;;;;;;0.10;0.10;;;;;;;;;;4826527;29;20499;-88
2022/01/18 15:05:51;;;;;;;0.15;0.15;;;;;;;;;;4811446;29;20049;-87
2022/01/18 15:08:19;;;;;;;0.10;0.10;;;;;;;;;;4826428;29;20335;-87
2022/01/18 15:10:45;;;;;;;0.10;0.10;;;;;;;;;;4811514;29;20431;-87
2022/01/18 15:13:11;;;;;;;0.10;0.10;;;;;;;;;;4811266;29;20114;-87
2022/01/18 15:15:37;;;;;;;0.10;0.10;;;;;;;;;;4825934;29;20124;-87
2022/01/18 15:18:03;;;;;;;0.10;0.10;;;;;;;;;;4811312;29;20038;-87
2022/01/18 15:20:29;;;;;;;0.10;0.10;;;;;;;;;;4811121;29;20068;-87
2022/01/18 15:22:55;;;;;;;0.10;0.10;;;;;;;;;;4811044;29;20042;-87
2022/01/18 15:25:22;;;;;;;0.10;0.10;;;;;;;;;;4826086;29;20424;-88
2022/01/18 15:27:49;;;;;;;0.10;0.10;;;;;;;;;;4825982;29;20081;-87
2022/01/18 15:30:15;;;;;;;0.10;0.10;;;;;;;;;;4826103;29;20081;-87
2022/01/18 15:32:42;;;;;;;0.10;0.10;;;;;;;;;;4825830;29;20437;-87
2022/01/18 15:35:08;;;;;;;0.10;0.10;;;;;;;;;;4825385;29;20518;-87
2022/01/18 15:37:34;;;;;;;4.47;0.40;;;;;;;;;;4810621;29;20514;-87
2022/01/18 15:40:02;;;;;;;0.10;0.10;;;;;;;;;;4810773;29;20080;-87
2022/01/18 15:42:28;;;;;;;0.10;0.10;;;;;;;;;;4826063;29;20038;-87
2022/01/18 15:44:54;;;;;;;0.10;0.10;;;;;;;;;;4825940;29;20149;-88
2022/01/18 15:47:20;;;;;;;0.10;0.10;;;;;;;;;;4825452;29;20074;-87
2022/01/18 15:49:46;;;;;;;0.10;0.10;;;;;;;;;;4810453;29;20117;-87
2022/01/18 15:52:12;;;;;;;0.15;0.15;;;;;;;;;;4825548;29;20050;-87
2022/01/18 15:54:38;;;;;;;0.38;0.38;;;;;;;;;;4825704;29;20483;-87
2022/01/18 15:57:07;;;;;;;0.10;0.10;;;;;;;;;;4825687;29;20132;-87
2022/01/18 15:59:40;;;;;;;0.10;0.10;;;;;;;;;;4825607;29;20045;-87
2022/01/18 16:02:08;;;;;;;0.10;0.10;;;;;;;;;;4810324;29;20133;-88
2022/01/18 16:04:34;;;;;;;0.10;0.10;;;;;;;;;;4825718;29;20052;-87
2022/01/18 16:07:00;;;;;;;0.10;0.10;;;;;;;;;;4810221;29;20133;-88
2022/01/18 16:09:26;;;;;;;0.10;0.10;;;;;;;;;;4825511;29;20045;-87
2022/01/18 16:11:53;;;;;;;0.10;0.10;;;;;;;;;;4810035;29;20522;-87